Time;durP1;ratioP1;P1;durP2;ratioP2;P2;SDS_P1;SDS_P2;PMS_P1;PMS_P2;Temp;Humidity;BMP_temperature;BMP_pressure;BME280_temperature;BME280_humidity;BME280_pressure;Samples;Min_cycle;Max_cycle;Signal;HPM_P1;HPM_P2
2023/01/03 00:01:42;;;;;;;14.35;3.65;;;18.60;54.30;;;;;;5079462;28;20569;-72
2023/01/03 00:04:08;;;;;;;14.15;4.22;;;18.60;54.50;;;;;;5074738;28;20434;-71
2023/01/03 00:06:39;;;;;;;13.40;4.63;;;18.50;54.60;;;;;;5076290;28;20169;-72
2023/01/03 00:09:10;;;;;;;14.27;3.83;;;18.60;55.00;;;;;;5082556;28;20551;-70
2023/01/03 00:14:29;;;;;;;13.18;3.55;;;18.40;55.30;;;;;;5077570;28;20138;-70
2023/01/03 00:16:58;;;;;;;24.38;3.83;;;18.40;55.60;;;;;;5079212;28;20077;-69
2023/01/03 00:19:26;;;;;;;16.65;3.75;;;18.40;55.70;;;;;;5079348;28;20552;-71
2023/01/03 00:21:53;;;;;;;16.17;4.05;;;18.30;56.00;;;;;;5081676;28;20180;-73
2023/01/03 00:24:20;;;;;;;17.45;3.55;;;18.30;56.20;;;;;;5072401;28;20073;-69
2023/01/03 00:26:47;;;;;;;18.65;4.10;;;18.20;56.40;;;;;;5079584;28;20100;-69
2023/01/03 00:29:14;;;;;;;15.27;3.83;;;18.20;56.60;;;;;;5079879;28;20153;-69
2023/01/03 00:31:41;;;;;;;19.77;3.90;;;18.20;57.00;;;;;;5080727;28;20087;-67
2023/01/03 00:34:08;;;;;;;22.60;4.28;;;18.10;57.20;;;;;;5073393;28;20111;-67
2023/01/03 00:36:35;;;;;;;21.75;4.20;;;18.10;57.30;;;;;;5072877;28;20085;-67
2023/01/03 00:39:02;;;;;;;19.08;3.95;;;18.10;57.20;;;;;;5076331;28;20525;-69
2023/01/03 00:41:29;;;;;;;26.38;5.10;;;18.10;57.50;;;;;;5086273;28;20111;-68
2023/01/03 00:43:56;;;;;;;21.95;4.25;;;18.00;57.20;;;;;;5081134;28;20209;-68
2023/01/03 00:46:23;;;;;;;15.18;4.22;;;18.00;56.30;;;;;;5079640;28;20095;-66
2023/01/03 00:48:50;;;;;;;15.80;3.70;;;17.90;56.20;;;;;;5077620;28;20081;-68
2023/01/03 00:51:22;;;;;;;15.40;3.60;;;17.90;56.00;;;;;;5080336;28;20081;-67
2023/01/03 00:53:51;;;;;;;12.90;3.63;;;17.80;56.00;;;;;;5083839;28;20154;-69
2023/01/03 00:56:20;;;;;;;17.00;3.85;;;17.80;56.20;;;;;;5076382;28;20077;-69
2023/01/03 00:58:47;;;;;;;15.82;4.07;;;17.80;56.30;;;;;;5082907;28;20077;-67
2023/01/03 01:01:16;;;;;;;18.88;3.85;;;17.80;56.50;;;;;;5081751;28;20108;-68
2023/01/03 01:03:46;;;;;;;22.55;4.28;;;17.80;56.70;;;;;;5077565;28;20069;-67
2023/01/03 01:06:44;;;;;;;20.17;4.43;;;17.80;57.00;;;;;;5079239;28;20099;-68
2023/01/03 01:09:16;;;;;;;23.58;7.28;;;17.70;57.20;;;;;;5081203;28;20531;-67
2023/01/03 01:11:42;;;;;;;16.80;5.35;;;17.70;57.30;;;;;;5080412;28;20488;-68
2023/01/03 01:14:18;;;;;;;20.48;4.60;;;17.70;57.50;;;;;;5069987;28;20138;-68
2023/01/03 01:16:47;;;;;;;16.90;4.55;;;17.70;57.60;;;;;;5080459;28;20411;-68
2023/01/03 01:19:14;;;;;;;16.60;4.82;;;17.60;57.90;;;;;;5082174;28;20097;-66
2023/01/03 01:21:41;;;;;;;18.98;5.05;;;17.70;58.00;;;;;;5078650;28;20088;-63
2023/01/03 01:24:09;;;;;;;20.23;6.32;;;17.60;58.00;;;;;;5086707;28;20514;-69
2023/01/03 01:26:35;;;;;;;22.45;4.47;;;17.70;58.10;;;;;;5080806;28;20084;-69
2023/01/03 01:29:01;;;;;;;16.20;4.13;;;17.60;58.00;;;;;;5079326;28;20065;-68
2023/01/03 01:31:28;;;;;;;23.58;5.53;;;17.60;58.10;;;;;;5081289;28;20099;-68
2023/01/03 01:33:55;;;;;;;22.58;4.93;;;17.60;58.20;;;;;;5081999;28;20114;-74
2023/01/03 01:36:33;;;;;;;30.73;5.45;;;17.60;58.20;;;;;;5077548;28;20081;-68
2023/01/03 01:39:02;;;;;;;22.70;5.32;;;17.60;58.30;;;;;;5076923;28;20133;-69
2023/01/03 01:44:44;;;;;;;20.02;4.45;;;17.60;57.90;;;;;;5071445;28;20084;-68
2023/01/03 01:47:20;;;;;;;21.02;4.18;;;17.60;58.00;;;;;;5075130;28;20489;-72
2023/01/03 01:49:49;;;;;;;19.75;4.35;;;17.60;56.90;;;;;;5075840;28;20134;-78
2023/01/03 01:52:19;;;;;;;18.88;3.88;;;17.60;57.30;;;;;;5082795;28;20126;-71
2023/01/03 01:54:48;;;;;;;13.20;3.72;;;17.60;57.00;;;;;;5086167;28;20452;-71
2023/01/03 01:57:19;;;;;;;10.95;3.13;;;17.60;57.30;;;;;;5081395;28;20073;-77
2023/01/03 01:59:46;;;;;;;21.15;4.63;;;17.60;57.50;;;;;;5079908;28;20481;-71
2023/01/03 02:02:16;;;;;;;22.65;4.28;;;17.60;57.50;;;;;;5082082;28;20119;-68
2023/01/03 02:04:43;;;;;;;17.77;4.03;;;17.60;57.20;;;;;;5083812;28;20072;-68
2023/01/03 02:07:10;;;;;;;14.70;3.90;;;17.60;57.40;;;;;;5085074;28;20142;-69
2023/01/03 02:09:36;;;;;;;17.88;4.10;;;17.50;57.60;;;;;;5079270;28;20091;-72
2023/01/03 02:15:16;;;;;;;22.77;5.03;;;17.50;57.90;;;;;;5080763;28;20080;-66
2023/01/03 02:17:48;;;;;;;20.60;4.65;;;17.50;58.00;;;;;;5075616;28;20077;-69
2023/01/03 02:20:42;;;;;;;16.13;4.85;;;17.50;58.10;;;;;;5079668;28;20151;-69
2023/01/03 02:23:11;;;;;;;17.52;4.07;;;17.60;57.80;;;;;;5080426;28;20075;-71
2023/01/03 02:26:24;;;;;;;24.92;4.75;;;17.60;58.10;;;;;;5086381;28;20077;-71
2023/01/03 02:29:25;;;;;;;24.73;4.53;;;17.60;57.90;;;;;;5075246;28;20103;-78
2023/01/03 02:32:08;;;;;;;22.48;4.38;;;17.60;57.70;;;;;;5041409;28;20131;-72
2023/01/03 02:34:55;;;;;;;23.63;4.72;;;17.60;58.00;;;;;;5080037;28;20080;-71
2023/01/03 02:37:27;;;;;;;20.13;5.40;;;17.60;57.80;;;;;;5081337;28;20184;-70
2023/01/03 02:40:10;;;;;;;27.88;5.88;;;17.60;57.80;;;;;;5077278;28;20149;-70
2023/01/03 02:43:14;;;;;;;32.58;5.53;;;17.60;57.90;;;;;;5084871;28;20109;-71
2023/01/03 02:45:47;;;;;;;22.35;5.93;;;17.60;58.00;;;;;;5078472;28;20525;-72
2023/01/03 02:48:46;;;;;;;26.80;6.13;;;17.60;58.10;;;;;;5080037;28;20112;-73
2023/01/03 02:51:42;;;;;;;23.88;6.03;;;17.50;57.90;;;;;;5076509;28;20084;-70
2023/01/03 02:54:13;;;;;;;26.05;6.00;;;17.50;58.00;;;;;;5079731;28;20430;-68
2023/01/03 02:56:47;;;;;;;23.17;5.22;;;17.50;57.90;;;;;;5082295;28;20657;-67
2023/01/03 02:59:18;;;;;;;43.35;6.88;;;17.50;58.50;;;;;;5081714;28;20485;-68
2023/01/03 03:01:49;;;;;;;26.98;5.88;;;17.50;59.40;;;;;;5087141;28;20115;-70
2023/01/03 03:04:17;;;;;;;27.27;6.90;;;17.50;59.60;;;;;;5082207;28;20078;-68
2023/01/03 03:07:06;;;;;;;67.47;7.68;;;17.50;59.50;;;;;;5080612;28;20569;-69
2023/01/03 03:13:11;;;;;;;55.58;7.88;;;17.40;59.60;;;;;;5079047;28;20095;-68
2023/01/03 03:15:06;;;;;;;22.30;6.47;;;17.30;60.00;;;;;;5081940;28;20107;-71
2023/01/03 03:17:33;;;;;;;25.73;6.97;;;17.20;59.90;;;;;;5082441;28;20097;-72
2023/01/03 03:26:00;;;;;;;27.63;7.13;;;17.20;61.20;;;;;;5043736;28;20189;-70
2023/01/03 03:28:35;;;;;;;27.88;7.30;;;17.10;60.80;;;;;;5078139;28;20449;-69
2023/01/03 03:31:37;;;;;;;27.98;6.93;;;17.10;61.90;;;;;;5077500;28;20517;-70
2023/01/03 03:34:07;;;;;;;26.48;6.68;;;17.10;61.40;;;;;;5075854;28;20076;-72
2023/01/03 03:37:04;;;;;;;21.67;5.65;;;17.10;61.60;;;;;;5077256;28;20073;-70
2023/01/03 03:45:17;;;;;;;23.63;5.97;;;17.10;61.40;;;;;;5077924;28;20079;-67
2023/01/03 03:48:12;;;;;;;28.00;6.53;;;17.10;61.40;;;;;;5079611;28;20473;-73
2023/01/03 03:51:07;;;;;;;21.13;6.25;;;17.00;61.20;;;;;;5075205;28;20099;-70
2023/01/03 03:53:38;;;;;;;27.02;6.75;;;17.00;61.50;;;;;;5078927;28;20077;-75
2023/01/03 03:56:17;;;;;;;33.80;6.50;;;16.80;62.00;;;;;;5080079;28;20065;-71
2023/01/03 03:58:48;;;;;;;31.55;7.47;;;16.80;62.60;;;;;;5073931;28;20476;-69
2023/01/03 04:01:19;;;;;;;24.30;6.97;;;16.90;62.20;;;;;;5078955;28;20106;-67
2023/01/03 04:03:48;;;;;;;29.15;7.85;;;16.90;63.60;;;;;;5078939;28;20081;-67
2023/01/03 04:06:52;;;;;;;39.38;7.60;;;16.80;63.10;;;;;;5074752;28;20146;-72
2023/01/03 04:09:19;;;;;;;27.50;7.43;;;16.80;63.70;;;;;;5035056;28;20181;-69
2023/01/03 04:11:46;;;;;;;33.20;8.45;;;16.90;64.60;;;;;;5036353;28;20090;-71
2023/01/03 04:14:12;;;;;;;37.38;11.48;;;16.90;64.90;;;;;;5042594;28;20463;-71
2023/01/03 04:16:39;;;;;;;46.55;12.98;;;16.80;64.10;;;;;;5037259;28;20097;-72
2023/01/03 04:19:07;;;;;;;23.48;9.98;;;16.80;65.30;;;;;;5041132;28;20450;-71
2023/01/03 04:21:35;;;;;;;26.42;7.95;;;16.80;65.30;;;;;;5038988;28;20074;-76
2023/01/03 04:24:03;;;;;;;20.55;6.40;;;16.80;65.10;;;;;;5035485;28;20554;-75
2023/01/03 04:26:29;;;;;;;27.95;8.18;;;16.70;67.80;;;;;;5039329;28;20105;-71
2023/01/03 04:28:56;;;;;;;26.20;6.50;;;16.70;71.10;;;;;;5034186;28;20074;-69
2023/01/03 04:31:22;;;;;;;23.92;5.95;;;16.60;72.90;;;;;;5039955;28;20583;-71
2023/01/03 04:33:49;;;;;;;24.40;6.57;;;16.50;74.50;;;;;;5037784;28;20082;-72
2023/01/03 04:36:17;;;;;;;29.00;7.32;;;16.50;75.90;;;;;;5035174;28;20077;-71
2023/01/03 04:38:44;;;;;;;26.58;7.00;;;16.50;75.70;;;;;;5038656;28;20097;-69
2023/01/03 04:41:10;;;;;;;21.98;5.57;;;16.50;76.20;;;;;;5037624;28;20182;-71
2023/01/03 04:46:21;;;;;;;20.15;6.10;;;16.50;77.00;;;;;;5066168;28;20453;-71
2023/01/03 04:48:48;;;;;;;17.17;5.20;;;16.40;77.80;;;;;;5081738;28;20096;-71
2023/01/03 04:51:15;;;;;;;27.10;5.78;;;16.40;78.00;;;;;;5078815;28;20418;-70
2023/01/03 04:53:41;;;;;;;19.13;5.18;;;16.30;78.10;;;;;;5080082;28;20118;-68
2023/01/03 04:56:08;;;;;;;19.20;5.70;;;16.20;78.00;;;;;;5077502;28;20097;-71
2023/01/03 04:58:34;;;;;;;26.33;5.60;;;16.30;77.70;;;;;;5080156;28;20073;-72
2023/01/03 05:01:06;;;;;;;23.45;5.95;;;16.30;77.50;;;;;;5081420;28;20636;-71
2023/01/03 05:03:34;;;;;;;25.20;5.50;;;16.40;77.50;;;;;;5076373;28;20088;-70
2023/01/03 05:06:02;;;;;;;22.27;5.80;;;16.30;77.50;;;;;;5076342;28;20163;-70
2023/01/03 05:08:29;;;;;;;18.80;5.88;;;16.30;78.10;;;;;;5081836;28;20080;-71
2023/01/03 05:10:56;;;;;;;21.27;5.93;;;16.30;78.60;;;;;;5075515;28;20069;-71
2023/01/03 05:13:22;;;;;;;25.30;5.75;;;16.30;78.80;;;;;;5076971;28;20081;-68
2023/01/03 05:15:49;;;;;;;20.30;6.00;;;16.30;79.50;;;;;;5076073;28;20101;-71
2023/01/03 05:18:16;;;;;;;20.38;6.07;;;16.30;79.70;;;;;;5079978;28;20165;-69
2023/01/03 05:26:15;;;;;;;23.23;5.50;;;16.20;78.70;;;;;;5080698;28;20111;-69
2023/01/03 05:28:45;;;;;;;19.73;5.57;;;16.20;78.10;;;;;;5082370;28;20445;-72
2023/01/03 05:31:11;;;;;;;15.30;4.70;;;16.30;78.70;;;;;;5080918;28;20142;-71
2023/01/03 05:33:39;;;;;;;19.30;5.63;;;16.30;79.30;;;;;;5083003;28;20081;-71
2023/01/03 05:36:07;;;;;;;18.80;5.47;;;16.20;78.60;;;;;;5083680;28;20441;-71
2023/01/03 05:38:33;;;;;;;22.75;6.03;;;16.20;78.60;;;;;;5082531;28;20073;-72
2023/01/03 05:41:00;;;;;;;27.58;7.63;;;16.20;79.10;;;;;;5084897;28;20077;-74
2023/01/03 05:43:26;;;;;;;26.38;7.82;;;16.20;79.60;;;;;;5083550;28;20080;-71
2023/01/03 05:45:53;;;;;;;25.35;7.20;;;16.30;80.40;;;;;;5085070;28;20186;-77
2023/01/03 05:48:20;;;;;;;25.85;6.78;;;16.10;81.00;;;;;;5084315;28;20078;-69
2023/01/03 05:50:48;;;;;;;24.17;5.32;;;16.20;81.50;;;;;;5078090;28;20069;-72
2023/01/03 05:53:15;;;;;;;16.20;5.25;;;16.20;78.10;;;;;;5083246;28;20068;-80
2023/01/03 05:55:42;;;;;;;22.80;5.80;;;16.20;78.90;;;;;;5078102;28;20069;-72
2023/01/03 05:58:11;;;;;;;15.60;5.95;;;16.20;79.20;;;;;;5085526;28;20526;-71
2023/01/03 06:00:38;;;;;;;23.48;6.72;;;16.20;80.40;;;;;;5084109;28;20476;-72
2023/01/03 06:03:05;;;;;;;27.15;7.50;;;16.10;82.20;;;;;;5079491;28;20102;-72
2023/01/03 06:05:31;;;;;;;26.60;9.60;;;16.10;82.90;;;;;;5080058;28;20068;-71
2023/01/03 06:08:00;;;;;;;27.00;9.60;;;16.20;83.80;;;;;;5076474;28;20658;-70
2023/01/03 06:10:27;;;;;;;29.45;8.93;;;16.10;83.80;;;;;;5073456;28;20130;-71
2023/01/03 06:12:53;;;;;;;30.27;10.27;;;16.10;84.30;;;;;;5079929;28;20097;-72
2023/01/03 06:15:19;;;;;;;29.98;9.55;;;16.10;85.00;;;;;;5081034;28;20080;-70
2023/01/03 06:17:56;;;;;;;33.08;9.93;;;16.10;85.60;;;;;;5079463;28;20084;-70
2023/01/03 06:20:23;;;;;;;;;;;16.00;85.40;;;;;;5076688;28;20100;-68
2023/01/03 06:22:49;;;;;;;31.33;9.33;;;15.90;86.10;;;;;;5080861;28;19960;-70
2023/01/03 06:25:15;;;;;;;;;;;16.00;87.10;;;;;;5086823;28;21049;-72
2023/01/03 06:27:42;;;;;;;29.67;10.57;;;16.00;87.50;;;;;;5085583;28;19973;-70
2023/01/03 06:30:09;;;;;;;32.15;10.13;;;16.00;87.40;;;;;;5085832;28;20089;-69
2023/01/03 06:32:35;;;;;;;33.25;12.10;;;16.00;88.30;;;;;;5084684;28;20073;-71
2023/01/03 06:35:02;;;;;;;38.30;12.95;;;15.90;88.60;;;;;;5079722;28;20084;-70
2023/01/03 06:37:28;;;;;;;39.38;14.23;;;15.90;88.70;;;;;;5080582;28;20072;-70
2023/01/03 06:39:55;;;;;;;40.00;15.60;;;15.90;89.00;;;;;;5078486;28;20103;-70
2023/01/03 06:42:41;;;;;;;33.90;14.25;;;15.90;89.20;;;;;;5080782;28;20105;-71
2023/01/03 06:53:32;;;;;;;26.25;7.78;;;15.80;89.50;;;;;;5076746;28;20086;-69
2023/01/03 06:55:59;;;;;;;11.98;4.32;;;15.80;86.10;;;;;;5085859;28;20137;-70
2023/01/03 06:58:26;;;;;;;16.73;3.80;;;15.90;82.20;;;;;;5080139;28;20592;-71
2023/01/03 07:00:53;;;;;;;11.00;3.72;;;15.80;81.20;;;;;;5077714;28;20574;-71
2023/01/03 07:03:20;;;;;;;30.40;4.13;;;15.80;80.90;;;;;;5079726;28;20096;-71
2023/01/03 07:05:47;;;;;;;15.13;3.30;;;15.80;79.80;;;;;;5076769;28;21735;-71
2023/01/03 07:08:13;;;;;;;19.65;3.35;;;15.80;80.00;;;;;;5080282;28;20073;-71
2023/01/03 07:10:40;;;;;;;8.52;2.53;;;15.70;80.50;;;;;;5079003;28;20085;-71
2023/01/03 07:15:51;;;;;;;8.25;2.50;;;15.70;80.30;;;;;;5078657;28;20180;-69
2023/01/03 07:18:17;;;;;;;13.45;3.72;;;15.60;80.50;;;;;;5079633;28;20069;-70
2023/01/03 07:20:44;;;;;;;10.80;3.80;;;15.50;80.10;;;;;;5083299;28;20461;-70
2023/01/03 07:23:12;;;;;;;19.05;4.43;;;15.50;80.30;;;;;;5077829;28;20156;-71
2023/01/03 07:25:40;;;;;;;16.65;3.90;;;15.40;80.30;;;;;;5078534;28;20569;-70
2023/01/03 07:28:14;;;;;;;10.75;3.30;;;15.40;80.30;;;;;;5081099;28;20077;-68
2023/01/03 07:30:44;;;;;;;13.40;3.30;;;15.40;80.00;;;;;;5081012;28;20185;-71
2023/01/03 07:33:13;;;;;;;14.45;3.58;;;15.30;80.50;;;;;;5079854;28;20111;-70
2023/01/03 07:35:40;;;;;;;13.40;3.53;;;15.30;80.20;;;;;;5081544;28;20069;-69
2023/01/03 07:38:07;;;;;;;11.57;2.92;;;15.20;80.40;;;;;;5085155;28;20076;-70
2023/01/03 07:40:33;;;;;;;9.50;2.70;;;15.20;80.50;;;;;;5076692;28;20073;-72
2023/01/03 07:45:45;;;;;;;11.45;2.70;;;15.20;80.70;;;;;;5076118;28;20076;-69
2023/01/03 07:48:12;;;;;;;12.52;3.58;;;15.10;80.90;;;;;;5081566;28;20172;-70
2023/01/03 07:50:39;;;;;;;15.50;3.80;;;15.10;81.40;;;;;;5081746;28;21676;-69
2023/01/03 07:53:07;;;;;;;13.90;3.38;;;15.10;81.50;;;;;;5081480;28;20076;-69
2023/01/03 07:55:35;;;;;;;7.97;3.00;;;15.10;82.10;;;;;;5079000;28;20101;-71
2023/01/03 07:58:02;;;;;;;10.80;2.97;;;15.00;82.10;;;;;;5082173;28;20089;-69
2023/01/03 08:00:28;;;;;;;11.82;3.40;;;15.00;83.00;;;;;;5084145;28;20084;-70
2023/01/03 08:02:55;;;;;;;;;;;14.90;84.10;;;;;;5083194;28;20521;-68
2023/01/03 08:05:22;;;;;;;9.55;3.05;;;14.80;84.40;;;;;;5078045;28;19957;-70
2023/01/03 08:07:49;;;;;;;11.15;2.95;;;14.70;84.70;;;;;;5077280;28;20128;-70
2023/01/03 08:13:17;;;;;;;13.70;3.58;;;14.50;85.40;;;;;;5077951;28;20091;-71
2023/01/03 08:15:52;;;;;;;13.55;3.78;;;14.50;86.00;;;;;;5079128;28;20167;-72
2023/01/03 08:18:26;;;;;;;14.18;4.13;;;14.50;85.90;;;;;;5079824;28;20064;-69
2023/01/03 08:20:55;;;;;;;13.63;3.15;;;14.40;86.20;;;;;;5082305;28;20532;-72
2023/01/03 08:23:25;;;;;;;16.88;4.07;;;14.30;86.00;;;;;;5080101;28;20081;-72
2023/01/03 08:25:58;;;;;;;34.50;11.38;;;14.30;86.30;;;;;;5083651;28;20073;-72
2023/01/03 08:28:24;;;;;;;30.15;10.73;;;14.30;86.50;;;;;;5076767;28;20073;-70
2023/01/03 08:30:50;;;;;;;;;;;14.20;86.20;;;;;;5080658;28;20061;-71
2023/01/03 08:33:19;;;;;;;33.20;13.55;;;14.20;86.90;;;;;;5078021;28;19956;-69
2023/01/03 08:35:50;;;;;;;31.88;15.23;;;14.10;87.30;;;;;;5077035;28;20088;-71
2023/01/03 08:38:22;;;;;;;31.73;14.23;;;14.10;88.30;;;;;;5076517;28;20118;-68
2023/01/03 08:40:48;;;;;;;34.28;15.02;;;14.10;88.40;;;;;;5076437;28;20073;-71
2023/01/03 08:43:34;;;;;;;14.30;3.70;;;14.10;88.60;;;;;;5076134;28;20069;-67
2023/01/03 08:46:04;;;;;;;12.73;3.33;;;14.00;88.10;;;;;;5080802;28;20132;-69
2023/01/03 08:48:30;;;;;;;15.38;3.90;;;14.00;88.30;;;;;;5078575;28;20495;-71
2023/01/03 08:50:56;;;;;;;;;;;14.00;89.50;;;;;;5078765;28;20073;-72
2023/01/03 08:53:24;;;;;;;11.68;3.80;;;13.90;89.70;;;;;;5083867;28;20079;-73
2023/01/03 08:55:50;;;;;;;11.23;3.80;;;13.90;89.80;;;;;;5083393;28;20076;-68
2023/01/03 08:58:17;;;;;;;;;;;13.90;90.30;;;;;;5078442;28;20114;-71
2023/01/03 09:00:43;;;;;;;13.30;4.03;;;13.80;90.20;;;;;;5080358;28;19967;-69
2023/01/03 09:03:09;;;;;;;;;;;13.80;90.10;;;;;;5084882;28;20165;-70
2023/01/03 09:05:36;;;;;;;11.40;3.72;;;13.70;90.20;;;;;;5083661;28;19979;-67
2023/01/03 09:08:02;;;;;;;16.88;4.88;;;13.70;90.50;;;;;;5086051;28;20093;-70
2023/01/03 09:10:28;;;;;;;;;;;13.60;90.60;;;;;;5084903;28;20096;-72
2023/01/03 09:12:55;;;;;;;19.40;5.70;;;13.60;91.20;;;;;;5088911;28;20413;-70
2023/01/03 09:15:21;;;;;;;;;;;13.60;92.30;;;;;;5089224;28;20069;-68
2023/01/03 09:17:48;;;;;;;28.85;8.18;;;13.50;93.40;;;;;;5088616;28;19960;-68
2023/01/03 09:20:16;;;;;;;30.98;7.40;;;13.50;93.90;;;;;;5092549;28;20064;-70
2023/01/03 09:22:43;;;;;;;23.70;7.40;;;13.50;94.20;;;;;;5086597;28;20125;-71
2023/01/03 09:25:10;;;;;;;21.20;6.13;;;13.60;94.60;;;;;;5083638;28;20108;-69
2023/01/03 09:27:36;;;;;;;24.40;7.10;;;13.50;94.70;;;;;;5078485;28;20149;-68
2023/01/03 09:30:03;;;;;;;23.40;7.03;;;13.40;95.10;;;;;;5084296;28;20081;-70
2023/01/03 09:32:29;;;;;;;25.95;7.00;;;13.40;95.70;;;;;;5081789;28;20065;-71
2023/01/03 09:34:55;;;;;;;;;;;13.20;96.40;;;;;;5079664;28;20490;-68
2023/01/03 09:37:22;;;;;;;29.77;9.07;;;13.20;97.00;;;;;;5079897;28;19956;-70
2023/01/03 09:39:48;;;;;;;22.08;8.35;;;13.10;97.50;;;;;;5080167;28;20112;-71
2023/01/03 09:45:07;;;;;;;35.05;8.80;;;12.90;99.70;;;;;;5077818;28;19968;-69
2023/01/03 09:47:38;;;;;;;32.67;9.10;;;13.10;99.90;;;;;;5088308;28;20097;-69
2023/01/03 09:50:06;;;;;;;27.00;10.13;;;13.10;99.90;;;;;;5079225;28;20069;-70
2023/01/03 10:04:50;;;;;;;40.25;14.13;;;13.20;99.90;;;;;;5078346;28;20191;-71
2023/01/03 10:07:40;;;;;;;33.00;13.90;;;13.20;99.90;;;;;;5078847;28;20121;-68
2023/01/03 10:10:24;;;;;;;27.17;12.57;;;13.20;99.90;;;;;;5081818;28;20062;-70
2023/01/03 10:12:55;;;;;;;43.28;12.85;;;13.10;99.90;;;;;;5075961;28;20549;-68
2023/01/03 10:15:36;;;;;;;32.80;12.18;;;13.00;99.90;;;;;;5084299;28;20069;-70
2023/01/03 10:18:27;;;;;;;27.88;12.88;;;13.10;99.90;;;;;;5084556;28;20179;-68
2023/01/03 10:21:26;;;;;;;39.08;14.50;;;13.10;99.90;;;;;;5079852;28;20126;-71
2023/01/03 10:23:54;;;;;;;40.47;16.52;;;13.00;99.90;;;;;;5056261;28;20089;-69
2023/01/03 10:26:23;;;;;;;37.13;15.73;;;13.10;99.90;;;;;;5075590;28;20085;-70
2023/01/03 10:28:49;;;;;;;37.70;19.55;;;13.10;99.90;;;;;;5084542;28;20096;-72
2023/01/03 10:31:25;;;;;;;44.38;21.02;;;13.10;99.90;;;;;;5079838;28;20092;-67
2023/01/03 10:33:52;;;;;;;47.15;21.25;;;13.10;99.90;;;;;;5079237;28;20672;-70
2023/01/03 10:36:20;;;;;;;40.78;19.90;;;13.10;99.90;;;;;;5079841;28;20480;-71
2023/01/03 10:38:47;;;;;;;38.33;19.48;;;13.10;99.90;;;;;;5077306;28;20629;-70
2023/01/03 10:41:34;;;;;;;32.72;16.30;;;13.10;99.90;;;;;;5079991;28;20082;-70
2023/01/03 10:44:03;;;;;;;32.00;12.27;;;13.00;99.90;;;;;;5082545;28;20076;-70
2023/01/03 10:46:29;;;;;;;29.80;11.05;;;13.10;99.90;;;;;;5084537;28;20184;-70
2023/01/03 10:49:13;;;;;;;24.65;9.43;;;13.20;99.90;;;;;;5081601;28;20121;-69
2023/01/03 10:51:51;;;;;;;30.30;9.90;;;13.20;99.90;;;;;;5081890;28;20514;-70
2023/01/03 10:54:17;;;;;;;30.48;8.60;;;13.20;99.90;;;;;;5085277;28;20069;-73
2023/01/03 10:56:44;;;;;;;;;;;13.10;99.90;;;;;;5084123;28;20181;-70
2023/01/03 10:59:10;;;;;;;32.95;10.90;;;13.10;99.90;;;;;;5080251;28;20317;-68
2023/01/03 11:01:37;;;;;;;36.17;10.98;;;13.10;99.90;;;;;;5010207;28;1943074;-69
2023/01/03 11:04:18;;;;;;;32.78;11.10;;;12.90;99.90;;;;;;5080246;28;20093;-68
2023/01/03 11:07:03;;;;;;;30.95;10.88;;;12.90;99.90;;;;;;5081274;28;20093;-68
2023/01/03 11:09:49;;;;;;;31.00;11.80;;;12.90;99.90;;;;;;5078155;28;20148;-70
2023/01/03 11:12:29;;;;;;;31.58;11.50;;;12.90;99.90;;;;;;5073775;28;20081;-71
2023/01/03 11:14:59;;;;;;;32.75;11.55;;;13.00;99.90;;;;;;5084022;28;20068;-71
2023/01/03 11:17:28;;;;;;;31.17;11.68;;;13.10;99.90;;;;;;5076337;28;20061;-68
2023/01/03 11:19:56;;;;;;;32.42;12.85;;;12.90;99.90;;;;;;5078135;28;20097;-69
2023/01/03 11:22:52;;;;;;;27.27;11.80;;;13.00;99.90;;;;;;5083161;28;20076;-70
2023/01/03 11:26:06;;;;;;;39.90;12.88;;;13.10;99.90;;;;;;5076322;28;20456;-71
2023/01/03 11:28:33;;;;;;;29.70;11.63;;;13.10;99.90;;;;;;5016575;28;20557;-71
2023/01/03 11:30:59;;;;;;;;;;;13.00;99.90;;;;;;5083836;28;20108;-71
2023/01/03 11:33:48;;;;;;;28.50;11.68;;;12.80;99.90;;;;;;5077017;28;20046;-69
2023/01/03 11:36:30;;;;;;;28.80;11.45;;;12.80;99.90;;;;;;5085190;28;20553;-69
2023/01/03 11:39:06;;;;;;;29.83;11.27;;;12.70;99.90;;;;;;5078541;28;20068;-69
2023/01/03 11:42:12;;;;;;;35.30;12.32;;;12.60;99.90;;;;;;5081185;28;20064;-68
2023/01/03 11:44:57;;;;;;;32.92;12.27;;;12.60;99.90;;;;;;5079398;28;20069;-67
2023/01/03 11:47:42;;;;;;;28.15;12.00;;;12.50;99.90;;;;;;5077618;28;20172;-69
2023/01/03 11:50:33;;;;;;;27.23;11.27;;;12.50;99.90;;;;;;5077146;28;20122;-70
2023/01/03 11:53:04;;;;;;;24.92;10.80;;;12.40;99.90;;;;;;5080705;28;20065;-69
2023/01/03 11:55:53;;;;;;;42.03;11.77;;;12.40;99.90;;;;;;5078354;28;20075;-68
2023/01/03 11:58:40;;;;;;;30.10;11.50;;;12.40;99.90;;;;;;5067600;28;20526;-67
2023/01/03 12:01:32;;;;;;;34.17;12.48;;;12.40;99.90;;;;;;5077095;28;20433;-68
2023/01/03 12:04:23;;;;;;;35.08;13.25;;;12.40;99.90;;;;;;5078588;28;20072;-70
2023/01/03 12:07:14;;;;;;;28.58;11.80;;;12.30;99.90;;;;;;5079226;28;20085;-71
2023/01/03 12:10:13;;;;;;;37.85;13.15;;;12.30;99.90;;;;;;5080020;28;20922;-68
2023/01/03 12:13:33;;;;;;;32.70;13.27;;;12.30;99.90;;;;;;5073554;28;20088;-71
2023/01/03 12:16:08;;;;;;;38.13;12.93;;;12.30;99.90;;;;;;5007917;28;20110;-70
2023/01/03 12:18:56;;;;;;;33.65;14.88;;;12.30;99.90;;;;;;5064213;28;20164;-69
2023/01/03 12:21:35;;;;;;;36.58;14.30;;;12.20;99.90;;;;;;5077967;28;20656;-69
2023/01/03 12:24:56;;;;;;;33.63;14.80;;;12.20;99.90;;;;;;5082287;28;20084;-70
2023/01/03 12:27:29;;;;;;;29.92;10.50;;;12.20;99.90;;;;;;5054434;28;20097;-70
2023/01/03 12:30:06;;;;;;;35.13;12.95;;;12.10;99.90;;;;;;5079302;28;20120;-70
2023/01/03 12:32:44;;;;;;;;;;;12.20;99.90;;;;;;5082947;28;20099;-72
2023/01/03 12:35:25;;;;;;;;;;;12.10;99.90;;;;;;5081547;28;19956;-70
2023/01/03 12:37:53;;;;;;;27.63;11.63;;;12.10;99.90;;;;;;5076318;28;20489;-69
2023/01/03 12:40:52;;;;;;;31.17;11.48;;;12.10;99.90;;;;;;5079402;28;20081;-70
2023/01/03 12:43:51;;;;;;;28.10;10.85;;;12.10;99.90;;;;;;5077149;28;20514;-70
2023/01/03 12:46:25;;;;;;;30.02;11.05;;;12.20;99.90;;;;;;5077666;28;20183;-71
2023/01/03 12:48:59;;;;;;;35.65;11.65;;;12.20;99.90;;;;;;5083229;28;20172;-71
2023/01/03 12:51:26;;;;;;;30.90;10.90;;;12.10;99.90;;;;;;5079054;28;20076;-69
2023/01/03 12:53:53;;;;;;;29.42;9.75;;;12.10;99.90;;;;;;5083080;28;20099;-71
2023/01/03 12:56:19;;;;;;;;;;;12.20;99.90;;;;;;5081350;28;20073;-70
2023/01/03 12:59:16;;;;;;;25.40;9.57;;;12.00;99.90;;;;;;5076481;28;19964;-69
2023/01/03 13:01:52;;;;;;;25.13;7.75;;;11.70;99.90;;;;;;5079665;28;20112;-71
2023/01/03 13:04:30;;;;;;;21.88;7.13;;;11.70;99.90;;;;;;5079256;28;20088;-68
2023/01/03 13:07:05;;;;;;;29.80;7.70;;;11.80;99.90;;;;;;5078464;28;20180;-71
2023/01/03 13:09:39;;;;;;;29.67;8.77;;;11.90;99.90;;;;;;5081223;28;20080;-70
2023/01/03 13:12:14;;;;;;;25.92;8.48;;;11.90;99.90;;;;;;5079414;28;20084;-69
2023/01/03 13:15:14;;;;;;;19.52;8.15;;;11.90;99.90;;;;;;5078042;28;20550;-70
2023/01/03 13:17:48;;;;;;;25.55;9.25;;;11.90;99.90;;;;;;5074238;28;20138;-72
2023/01/03 13:20:29;;;;;;;44.15;11.52;;;11.90;99.90;;;;;;5078555;28;20084;-70
2023/01/03 13:23:18;;;;;;;37.35;12.77;;;11.90;99.90;;;;;;5084456;28;20069;-69
2023/01/03 13:25:44;;;;;;;42.00;13.50;;;11.70;99.90;;;;;;5076541;28;20104;-69
2023/01/03 13:28:20;;;;;;;28.65;11.55;;;11.70;99.90;;;;;;5081148;28;20107;-68
2023/01/03 13:30:47;;;;;;;38.53;12.10;;;11.20;99.90;;;;;;5073799;28;20065;-69
2023/01/03 13:33:15;;;;;;;40.55;13.40;;;11.50;99.90;;;;;;5075509;28;20164;-69
2023/01/03 13:35:44;;;;;;;40.35;12.73;;;11.50;99.90;;;;;;5077536;28;20060;-70
2023/01/03 13:38:34;;;;;;;33.15;11.05;;;11.50;99.90;;;;;;5074995;28;20153;-68
2023/01/03 13:41:37;;;;;;;33.35;9.93;;;11.50;99.90;;;;;;5075512;28;20076;-68
2023/01/03 13:44:16;;;;;;;35.38;10.43;;;11.50;99.90;;;;;;5034419;28;20148;-71
2023/01/03 13:46:43;;;;;;;31.75;8.77;;;11.20;99.90;;;;;;5034224;28;20139;-70
2023/01/03 13:49:21;;;;;;;26.85;8.32;;;11.40;99.90;;;;;;5035964;28;20101;-68
2023/01/03 13:51:50;;;;;;;26.48;7.30;;;11.70;99.90;;;;;;5036445;28;20077;-69
2023/01/03 13:54:16;;;;;;;30.05;9.15;;;11.30;99.90;;;;;;5046991;28;20543;-71
2023/01/03 13:56:42;;;;;;;;;;;11.30;99.90;;;;;;5042358;28;20105;-70
2023/01/03 13:59:17;;;;;;;34.83;10.10;;;11.70;99.90;;;;;;5037139;28;19965;-71
2023/01/03 14:01:44;;;;;;;28.35;11.98;;;11.70;99.90;;;;;;5042006;28;20220;-69
2023/01/03 14:04:13;;;;;;;;;;;11.30;99.90;;;;;;5037105;28;20092;-69
2023/01/03 14:07:05;;;;;;;34.78;13.20;;;11.40;99.90;;;;;;5034917;28;20105;-68
2023/01/03 14:09:56;;;;;;;42.10;12.68;;;11.50;99.90;;;;;;5039068;28;20066;-70
2023/01/03 14:12:35;;;;;;;31.48;12.18;;;11.60;99.90;;;;;;5042897;28;20547;-70